Terminal Aerodrome Forecast
Issued by NWS

Home | Current Version | Previous Version | Text Only | Print | Product List | Glossary On
Versions: 1 2 3 4 5 6 7 8 9 10 11 12 13
000
FTUS42 KMLB 230542
TAFSUA
TAF
KSUA 230542Z 2306/2406 22015G25KT P6SM VCTS BKN035CB OVC060
      TEMPO 2306/2307 25020G34KT 2SM +TSRA BKN025CB
     FM230900 23013G20KT P6SM BKN040
     FM231500 26022G30KT P6SM BKN045
     FM232300 28014G20KT P6SM FEW040=

USA.gov is the U.S. government's official web portal to all federal, state and local government web resources and services.